<?xml version="1.0" encoding="UTF-8" standalone="no" ?>
<gpx xmlns="http://www.topografix.com/GPX/1/1" xmlns:xsi="http://www.w3.org/2001/XMLSchema-instance" xsi:schemaLocation="http://www.topografix.com/GPX/1/1 http://www.topografix.com/GPX/1/1/gpx.xsd" version="1.1" creator="VisuGPX - https://www.visugpx.com">
  <metadata>
    <name>TRAIL 24 KM</name>
  </metadata>
  <trk>
    <name><![CDATA[Trk070]]></name>
    <trkseg>
      <trkpt lat="45.58495" lon="3.23577">
        <ele>468.2</ele>
        <time>2019-06-09T07:42:32Z</time>
      </trkpt>
      <trkpt lat="45.58494" lon="3.23578">
        <ele>470.3</ele>
        <time>2019-06-09T07:42:32Z</time>
      </trkpt>
      <trkpt lat="45.58495" lon="3.23571">
        <ele>468.2</ele>
        <time>2019-06-09T07:42:33Z</time>
      </trkpt>
      <trkpt lat="45.58494" lon="3.23555">
        <ele>468.5</ele>
        <time>2019-06-09T07:42:35Z</time>
      </trkpt>
      <trkpt lat="45.58485" lon="3.23555">
        <ele>469.6</ele>
        <time>2019-06-09T07:42:37Z</time>
      </trkpt>
      <trkpt lat="45.58476" lon="3.23559">
        <ele>470.9</ele>
        <time>2019-06-09T07:42:39Z</time>
      </trkpt>
      <trkpt lat="45.58468" lon="3.23569">
        <ele>469.1</ele>
        <time>2019-06-09T07:42:41Z</time>
      </trkpt>
      <trkpt lat="45.58452" lon="3.23551">
        <ele>473</ele>
        <time>2019-06-09T07:42:45Z</time>
      </trkpt>
      <trkpt lat="45.58439" lon="3.23522">
        <ele>470.3</ele>
        <time>2019-06-09T07:43:09Z</time>
      </trkpt>
      <trkpt lat="45.58414" lon="3.2344">
        <ele>461.7</ele>
        <time>2019-06-09T07:43:21Z</time>
      </trkpt>
      <trkpt lat="45.58376" lon="3.23361">
        <ele>453.9</ele>
        <time>2019-06-09T07:44:28Z</time>
      </trkpt>
      <trkpt lat="45.58307" lon="3.2327">
        <ele>441.2</ele>
        <time>2019-06-09T07:46:02Z</time>
      </trkpt>
      <trkpt lat="45.58262" lon="3.23243">
        <ele>435.6</ele>
        <time>2019-06-09T07:46:50Z</time>
      </trkpt>
      <trkpt lat="45.58248" lon="3.23129">
        <ele>428.1</ele>
        <time>2019-06-09T07:47:06Z</time>
      </trkpt>
      <trkpt lat="45.58233" lon="3.23082">
        <ele>423.2</ele>
        <time>2019-06-09T07:47:43Z</time>
      </trkpt>
      <trkpt lat="45.58223" lon="3.23041">
        <ele>420</ele>
        <time>2019-06-09T07:47:49Z</time>
      </trkpt>
      <trkpt lat="45.58213" lon="3.23032">
        <ele>418.8</ele>
        <time>2019-06-09T07:47:51Z</time>
      </trkpt>
      <trkpt lat="45.58177" lon="3.23006">
        <ele>415</ele>
        <time>2019-06-09T07:48:31Z</time>
      </trkpt>
      <trkpt lat="45.58052" lon="3.23054">
        <ele>400.6</ele>
        <time>2019-06-09T07:48:57Z</time>
      </trkpt>
      <trkpt lat="45.58031" lon="3.23073">
        <ele>403.1</ele>
        <time>2019-06-09T07:49:22Z</time>
      </trkpt>
      <trkpt lat="45.58014" lon="3.23107">
        <ele>397.8</ele>
        <time>2019-06-09T07:49:51Z</time>
      </trkpt>
      <trkpt lat="45.57993" lon="3.23149">
        <ele>401.7</ele>
        <time>2019-06-09T07:50:27Z</time>
      </trkpt>
      <trkpt lat="45.57932" lon="3.23198">
        <ele>386.9</ele>
        <time>2019-06-09T07:51:37Z</time>
      </trkpt>
      <trkpt lat="45.57908" lon="3.23239">
        <ele>382.734802</ele>
        <time>2019-06-09T07:52:14Z</time>
      </trkpt>
      <trkpt lat="45.57902" lon="3.23268">
        <ele>384.4</ele>
        <time>2019-06-09T07:52:18Z</time>
      </trkpt>
      <trkpt lat="45.57901" lon="3.233">
        <ele>382.784607</ele>
        <time>2019-06-09T07:52:40Z</time>
      </trkpt>
      <trkpt lat="45.57895" lon="3.23328">
        <ele>382.5</ele>
        <time>2019-06-09T07:52:44Z</time>
      </trkpt>
      <trkpt lat="45.5789" lon="3.23338">
        <ele>381</ele>
        <time>2019-06-09T07:52:46Z</time>
      </trkpt>
      <trkpt lat="45.57884" lon="3.23347">
        <ele>397</ele>
        <time>2019-06-09T07:52:55Z</time>
      </trkpt>
      <trkpt lat="45.57859" lon="3.23381">
        <ele>378.6</ele>
        <time>2019-06-09T07:53:28Z</time>
      </trkpt>
      <trkpt lat="45.57846" lon="3.23417">
        <ele>397.6</ele>
        <time>2019-06-09T07:53:57Z</time>
      </trkpt>
      <trkpt lat="45.57841" lon="3.23459">
        <ele>379.2</ele>
        <time>2019-06-09T07:54:26Z</time>
      </trkpt>
      <trkpt lat="45.57835" lon="3.235">
        <ele>388.6</ele>
        <time>2019-06-09T07:54:56Z</time>
      </trkpt>
      <trkpt lat="45.57842" lon="3.23558">
        <ele>393.6</ele>
        <time>2019-06-09T07:55:36Z</time>
      </trkpt>
      <trkpt lat="45.57836" lon="3.23611">
        <ele>373.2</ele>
        <time>2019-06-09T07:56:14Z</time>
      </trkpt>
      <trkpt lat="45.57824" lon="3.23628">
        <ele>373.9</ele>
        <time>2019-06-09T07:56:17Z</time>
      </trkpt>
      <trkpt lat="45.57816" lon="3.23657">
        <ele>373</ele>
        <time>2019-06-09T07:56:39Z</time>
      </trkpt>
      <trkpt lat="45.5781" lon="3.23695">
        <ele>371.6</ele>
        <time>2019-06-09T07:56:44Z</time>
      </trkpt>
      <trkpt lat="45.57807" lon="3.2374">
        <ele>376.853516</ele>
        <time>2019-06-09T07:57:16Z</time>
      </trkpt>
      <trkpt lat="45.57803" lon="3.23782">
        <ele>368.4</ele>
        <time>2019-06-09T07:57:22Z</time>
      </trkpt>
      <trkpt lat="45.57806" lon="3.23811">
        <ele>376.730347</ele>
        <time>2019-06-09T07:57:42Z</time>
      </trkpt>
      <trkpt lat="45.57815" lon="3.23841">
        <ele>367</ele>
        <time>2019-06-09T07:58:05Z</time>
      </trkpt>
      <trkpt lat="45.5783" lon="3.23862">
        <ele>367</ele>
        <time>2019-06-09T07:58:26Z</time>
      </trkpt>
      <trkpt lat="45.57838" lon="3.23857">
        <ele>367.1</ele>
        <time>2019-06-09T07:58:35Z</time>
      </trkpt>
      <trkpt lat="45.57845" lon="3.23861">
        <ele>371.8</ele>
        <time>2019-06-09T07:58:42Z</time>
      </trkpt>
      <trkpt lat="45.57864" lon="3.23775">
        <ele>377.5</ele>
        <time>2019-06-09T07:59:45Z</time>
      </trkpt>
      <trkpt lat="45.57888" lon="3.23666">
        <ele>396.7</ele>
        <time>2019-06-09T08:01:05Z</time>
      </trkpt>
      <trkpt lat="45.57915" lon="3.23514">
        <ele>397.8</ele>
        <time>2019-06-09T08:02:54Z</time>
      </trkpt>
      <trkpt lat="45.57927" lon="3.23479">
        <ele>404.3</ele>
        <time>2019-06-09T08:03:21Z</time>
      </trkpt>
      <trkpt lat="45.57937" lon="3.23464">
        <ele>412.135895</ele>
        <time>2019-06-09T08:03:36Z</time>
      </trkpt>
      <trkpt lat="45.57956" lon="3.23422">
        <ele>419.314667</ele>
        <time>2019-06-09T08:04:10Z</time>
      </trkpt>
      <trkpt lat="45.57961" lon="3.23402">
        <ele>417</ele>
        <time>2019-06-09T08:04:13Z</time>
      </trkpt>
      <trkpt lat="45.57976" lon="3.23386">
        <ele>421.8</ele>
        <time>2019-06-09T08:04:32Z</time>
      </trkpt>
      <trkpt lat="45.58008" lon="3.23388">
        <ele>428.2</ele>
        <time>2019-06-09T08:05:04Z</time>
      </trkpt>
      <trkpt lat="45.58016" lon="3.2343">
        <ele>435.3</ele>
        <time>2019-06-09T08:05:10Z</time>
      </trkpt>
      <trkpt lat="45.5803" lon="3.23492">
        <ele>437.1</ele>
        <time>2019-06-09T08:05:55Z</time>
      </trkpt>
      <trkpt lat="45.58004" lon="3.23521">
        <ele>440.1</ele>
        <time>2019-06-09T08:06:01Z</time>
      </trkpt>
      <trkpt lat="45.58019" lon="3.23587">
        <ele>450.4</ele>
        <time>2019-06-09T08:06:11Z</time>
      </trkpt>
      <trkpt lat="45.58056" lon="3.23634">
        <ele>448.9</ele>
        <time>2019-06-09T08:07:00Z</time>
      </trkpt>
      <trkpt lat="45.58069" lon="3.23654">
        <ele>456.1</ele>
        <time>2019-06-09T08:07:04Z</time>
      </trkpt>
      <trkpt lat="45.58082" lon="3.23702">
        <ele>456.5</ele>
        <time>2019-06-09T08:07:11Z</time>
      </trkpt>
      <trkpt lat="45.58091" lon="3.23723">
        <ele>456.1</ele>
        <time>2019-06-09T08:07:28Z</time>
      </trkpt>
      <trkpt lat="45.58127" lon="3.23717">
        <ele>461.3</ele>
        <time>2019-06-09T08:08:04Z</time>
      </trkpt>
      <trkpt lat="45.58167" lon="3.23744">
        <ele>473</ele>
        <time>2019-06-09T08:08:13Z</time>
      </trkpt>
      <trkpt lat="45.58205" lon="3.2374">
        <ele>477.498749</ele>
        <time>2019-06-09T08:08:50Z</time>
      </trkpt>
      <trkpt lat="45.58238" lon="3.23761">
        <ele>488.4</ele>
        <time>2019-06-09T08:08:58Z</time>
      </trkpt>
      <trkpt lat="45.58282" lon="3.23775">
        <ele>482.6</ele>
        <time>2019-06-09T08:09:43Z</time>
      </trkpt>
      <trkpt lat="45.58352" lon="3.23804">
        <ele>493.5</ele>
        <time>2019-06-09T08:10:55Z</time>
      </trkpt>
      <trkpt lat="45.58378" lon="3.23802">
        <ele>493</ele>
        <time>2019-06-09T08:11:00Z</time>
      </trkpt>
      <trkpt lat="45.58407" lon="3.23818">
        <ele>483</ele>
        <time>2019-06-09T08:11:31Z</time>
      </trkpt>
      <trkpt lat="45.58481" lon="3.23833">
        <ele>484.7</ele>
        <time>2019-06-09T08:12:46Z</time>
      </trkpt>
      <trkpt lat="45.58525" lon="3.23825">
        <ele>475.9</ele>
        <time>2019-06-09T08:13:30Z</time>
      </trkpt>
      <trkpt lat="45.58542" lon="3.23865">
        <ele>481.4</ele>
        <time>2019-06-09T08:14:03Z</time>
      </trkpt>
      <trkpt lat="45.58547" lon="3.23893">
        <ele>480.9</ele>
        <time>2019-06-09T08:14:07Z</time>
      </trkpt>
      <trkpt lat="45.58561" lon="3.23934">
        <ele>474.8</ele>
        <time>2019-06-09T08:14:38Z</time>
      </trkpt>
      <trkpt lat="45.58576" lon="3.23968">
        <ele>477.3</ele>
        <time>2019-06-09T08:15:06Z</time>
      </trkpt>
      <trkpt lat="45.58586" lon="3.24">
        <ele>475.5</ele>
        <time>2019-06-09T08:15:11Z</time>
      </trkpt>
      <trkpt lat="45.58595" lon="3.24083">
        <ele>466.8</ele>
        <time>2019-06-09T08:16:09Z</time>
      </trkpt>
      <trkpt lat="45.5859" lon="3.24116">
        <ele>471.8</ele>
        <time>2019-06-09T08:16:14Z</time>
      </trkpt>
      <trkpt lat="45.58582" lon="3.24153">
        <ele>467.4</ele>
        <time>2019-06-09T08:16:19Z</time>
      </trkpt>
      <trkpt lat="45.58577" lon="3.2419">
        <ele>459.5</ele>
        <time>2019-06-09T08:16:45Z</time>
      </trkpt>
      <trkpt lat="45.58604" lon="3.24149">
        <ele>465.1</ele>
        <time>2019-06-09T08:16:53Z</time>
      </trkpt>
      <trkpt lat="45.58642" lon="3.24117">
        <ele>457.6</ele>
        <time>2019-06-09T08:17:37Z</time>
      </trkpt>
      <trkpt lat="45.58656" lon="3.24094">
        <ele>458.9</ele>
        <time>2019-06-09T08:17:41Z</time>
      </trkpt>
      <trkpt lat="45.58692" lon="3.24023">
        <ele>454.1</ele>
        <time>2019-06-09T08:17:54Z</time>
      </trkpt>
      <trkpt lat="45.58737" lon="3.23925">
        <ele>450.512512</ele>
        <time>2019-06-09T08:18:10Z</time>
      </trkpt>
      <trkpt lat="45.58767" lon="3.23829">
        <ele>436.7</ele>
        <time>2019-06-09T08:18:25Z</time>
      </trkpt>
      <trkpt lat="45.58779" lon="3.23783">
        <ele>431.8</ele>
        <time>2019-06-09T08:18:31Z</time>
      </trkpt>
      <trkpt lat="45.5877" lon="3.23748">
        <ele>426.4</ele>
        <time>2019-06-09T08:18:37Z</time>
      </trkpt>
      <trkpt lat="45.58753" lon="3.23701">
        <ele>426.5</ele>
        <time>2019-06-09T08:18:44Z</time>
      </trkpt>
      <trkpt lat="45.58732" lon="3.23655">
        <ele>425.3</ele>
        <time>2019-06-09T08:19:22Z</time>
      </trkpt>
      <trkpt lat="45.58712" lon="3.236">
        <ele>421</ele>
        <time>2019-06-09T08:19:31Z</time>
      </trkpt>
      <trkpt lat="45.58708" lon="3.23547">
        <ele>422.8</ele>
        <time>2019-06-09T08:20:07Z</time>
      </trkpt>
      <trkpt lat="45.58714" lon="3.23516">
        <ele>423</ele>
        <time>2019-06-09T08:20:12Z</time>
      </trkpt>
      <trkpt lat="45.587" lon="3.23488">
        <ele>423.3</ele>
        <time>2019-06-09T08:20:36Z</time>
      </trkpt>
      <trkpt lat="45.58687" lon="3.23466">
        <ele>428.9</ele>
        <time>2019-06-09T08:20:40Z</time>
      </trkpt>
      <trkpt lat="45.58681" lon="3.23438">
        <ele>430.3</ele>
        <time>2019-06-09T08:20:44Z</time>
      </trkpt>
      <trkpt lat="45.58663" lon="3.23417">
        <ele>430.3</ele>
        <time>2019-06-09T08:20:49Z</time>
      </trkpt>
      <trkpt lat="45.58634" lon="3.23396">
        <ele>437</ele>
        <time>2019-06-09T08:20:55Z</time>
      </trkpt>
      <trkpt lat="45.58595" lon="3.23382">
        <ele>439.8</ele>
        <time>2019-06-09T08:21:03Z</time>
      </trkpt>
      <trkpt lat="45.58576" lon="3.23335">
        <ele>447.7</ele>
        <time>2019-06-09T08:21:33Z</time>
      </trkpt>
      <trkpt lat="45.58535" lon="3.23274">
        <ele>448.4</ele>
        <time>2019-06-09T08:21:45Z</time>
      </trkpt>
      <trkpt lat="45.58551" lon="3.23173">
        <ele>447.9</ele>
        <time>2019-06-09T08:22:58Z</time>
      </trkpt>
      <trkpt lat="45.58566" lon="3.23116">
        <ele>445.8</ele>
        <time>2019-06-09T08:23:40Z</time>
      </trkpt>
      <trkpt lat="45.58573" lon="3.23058">
        <ele>443.9</ele>
        <time>2019-06-09T08:23:48Z</time>
      </trkpt>
      <trkpt lat="45.58511" lon="3.23059">
        <ele>443.5</ele>
        <time>2019-06-09T08:24:50Z</time>
      </trkpt>
      <trkpt lat="45.5843" lon="3.23056">
        <ele>438.7</ele>
        <time>2019-06-09T08:25:06Z</time>
      </trkpt>
      <trkpt lat="45.58412" lon="3.23015">
        <ele>435.7</ele>
        <time>2019-06-09T08:25:13Z</time>
      </trkpt>
      <trkpt lat="45.58387" lon="3.22959">
        <ele>434.2</ele>
        <time>2019-06-09T08:25:22Z</time>
      </trkpt>
      <trkpt lat="45.58362" lon="3.2293">
        <ele>433.3</ele>
        <time>2019-06-09T08:25:54Z</time>
      </trkpt>
      <trkpt lat="45.58375" lon="3.22902">
        <ele>437</ele>
        <time>2019-06-09T08:25:59Z</time>
      </trkpt>
      <trkpt lat="45.58408" lon="3.22872">
        <ele>441.7</ele>
        <time>2019-06-09T08:26:06Z</time>
      </trkpt>
      <trkpt lat="45.58432" lon="3.22831">
        <ele>444</ele>
        <time>2019-06-09T08:26:14Z</time>
      </trkpt>
      <trkpt lat="45.5845" lon="3.22799">
        <ele>450</ele>
        <time>2019-06-09T08:26:19Z</time>
      </trkpt>
      <trkpt lat="45.58457" lon="3.22755">
        <ele>455.8</ele>
        <time>2019-06-09T08:26:26Z</time>
      </trkpt>
      <trkpt lat="45.58467" lon="3.22709">
        <ele>463.1</ele>
        <time>2019-06-09T08:26:32Z</time>
      </trkpt>
      <trkpt lat="45.58471" lon="3.22679">
        <ele>461.2</ele>
        <time>2019-06-09T08:26:37Z</time>
      </trkpt>
      <trkpt lat="45.58563" lon="3.22524">
        <ele>494.6</ele>
        <time>2019-06-09T08:28:58Z</time>
      </trkpt>
      <trkpt lat="45.58497" lon="3.22472">
        <ele>501.3</ele>
        <time>2019-06-09T08:30:13Z</time>
      </trkpt>
      <trkpt lat="45.58487" lon="3.22457">
        <ele>501.2</ele>
        <time>2019-06-09T08:30:16Z</time>
      </trkpt>
      <trkpt lat="45.58448" lon="3.22409">
        <ele>499.4</ele>
        <time>2019-06-09T08:31:07Z</time>
      </trkpt>
      <trkpt lat="45.58385" lon="3.22325">
        <ele>499</ele>
        <time>2019-06-09T08:32:33Z</time>
      </trkpt>
      <trkpt lat="45.58336" lon="3.22241">
        <ele>507.3</ele>
        <time>2019-06-09T08:33:49Z</time>
      </trkpt>
      <trkpt lat="45.58315" lon="3.22218">
        <ele>507.9</ele>
        <time>2019-06-09T08:33:54Z</time>
      </trkpt>
      <trkpt lat="45.58303" lon="3.22185">
        <ele>511</ele>
        <time>2019-06-09T08:33:59Z</time>
      </trkpt>
      <trkpt lat="45.58281" lon="3.22117">
        <ele>512.9</ele>
        <time>2019-06-09T08:34:51Z</time>
      </trkpt>
      <trkpt lat="45.58261" lon="3.22034">
        <ele>515.5</ele>
        <time>2019-06-09T08:35:03Z</time>
      </trkpt>
      <trkpt lat="45.58258" lon="3.21994">
        <ele>516</ele>
        <time>2019-06-09T08:35:09Z</time>
      </trkpt>
      <trkpt lat="45.58256" lon="3.21954">
        <ele>516.3</ele>
        <time>2019-06-09T08:35:37Z</time>
      </trkpt>
      <trkpt lat="45.58261" lon="3.21884">
        <ele>510.5</ele>
        <time>2019-06-09T08:35:47Z</time>
      </trkpt>
      <trkpt lat="45.58261" lon="3.21818">
        <ele>506.4</ele>
        <time>2019-06-09T08:36:32Z</time>
      </trkpt>
      <trkpt lat="45.58254" lon="3.21739">
        <ele>505.4</ele>
        <time>2019-06-09T08:37:28Z</time>
      </trkpt>
      <trkpt lat="45.58239" lon="3.2168">
        <ele>497.9</ele>
        <time>2019-06-09T08:38:11Z</time>
      </trkpt>
      <trkpt lat="45.58225" lon="3.21615">
        <ele>503.8</ele>
        <time>2019-06-09T08:38:59Z</time>
      </trkpt>
      <trkpt lat="45.58225" lon="3.21544">
        <ele>496.5</ele>
        <time>2019-06-09T08:39:48Z</time>
      </trkpt>
      <trkpt lat="45.58227" lon="3.21482">
        <ele>498.3</ele>
        <time>2019-06-09T08:40:02Z</time>
      </trkpt>
      <trkpt lat="45.58273" lon="3.21452">
        <ele>497.9</ele>
        <time>2019-06-09T08:40:52Z</time>
      </trkpt>
      <trkpt lat="45.58282" lon="3.21474">
        <ele>503.8</ele>
        <time>2019-06-09T08:40:56Z</time>
      </trkpt>
      <trkpt lat="45.58288" lon="3.21501">
        <ele>505</ele>
        <time>2019-06-09T08:41:00Z</time>
      </trkpt>
      <trkpt lat="45.58318" lon="3.21522">
        <ele>505</ele>
        <time>2019-06-09T08:41:06Z</time>
      </trkpt>
      <trkpt lat="45.58326" lon="3.21542">
        <ele>503.57431</ele>
        <time>2019-06-09T08:41:22Z</time>
      </trkpt>
      <trkpt lat="45.58345" lon="3.21728">
        <ele>516.06897</ele>
        <time>2019-06-09T08:43:33Z</time>
      </trkpt>
      <trkpt lat="45.5837" lon="3.21959">
        <ele>537.969482</ele>
        <time>2019-06-09T08:46:16Z</time>
      </trkpt>
      <trkpt lat="45.5842" lon="3.21924">
        <ele>551.784546</ele>
        <time>2019-06-09T08:47:11Z</time>
      </trkpt>
      <trkpt lat="45.5846" lon="3.21944">
        <ele>564.2099</ele>
        <time>2019-06-09T08:47:53Z</time>
      </trkpt>
      <trkpt lat="45.58483" lon="3.21896">
        <ele>568.283203</ele>
        <time>2019-06-09T08:48:34Z</time>
      </trkpt>
      <trkpt lat="45.58505" lon="3.21932">
        <ele>579.427246</ele>
        <time>2019-06-09T08:49:07Z</time>
      </trkpt>
      <trkpt lat="45.58572" lon="3.22026">
        <ele>582.569641</ele>
        <time>2019-06-09T08:50:40Z</time>
      </trkpt>
      <trkpt lat="45.58533" lon="3.22137">
        <ele>562.263733</ele>
        <time>2019-06-09T08:51:49Z</time>
      </trkpt>
      <trkpt lat="45.5857" lon="3.22218">
        <ele>548.172852</ele>
        <time>2019-06-09T08:52:10Z</time>
      </trkpt>
      <trkpt lat="45.58642" lon="3.22277">
        <ele>539.752502</ele>
        <time>2019-06-09T08:52:29Z</time>
      </trkpt>
      <trkpt lat="45.58748" lon="3.22275">
        <ele>525.68988</ele>
        <time>2019-06-09T08:52:50Z</time>
      </trkpt>
      <trkpt lat="45.58892" lon="3.22493">
        <ele>485.9</ele>
        <time>2019-06-09T08:53:32Z</time>
      </trkpt>
      <trkpt lat="45.58928" lon="3.22549">
        <ele>479.8</ele>
        <time>2019-06-09T08:53:42Z</time>
      </trkpt>
      <trkpt lat="45.58966" lon="3.22609">
        <ele>470.9</ele>
        <time>2019-06-09T08:53:54Z</time>
      </trkpt>
      <trkpt lat="45.58969" lon="3.22605">
        <ele>464.9</ele>
        <time>2019-06-09T08:53:58Z</time>
      </trkpt>
      <trkpt lat="45.59001" lon="3.22493">
        <ele>472.1</ele>
        <time>2019-06-09T08:55:22Z</time>
      </trkpt>
      <trkpt lat="45.59022" lon="3.22372">
        <ele>471.3</ele>
        <time>2019-06-09T08:56:49Z</time>
      </trkpt>
      <trkpt lat="45.59028" lon="3.22319">
        <ele>469</ele>
        <time>2019-06-09T08:57:26Z</time>
      </trkpt>
      <trkpt lat="45.59034" lon="3.22228">
        <ele>459.3</ele>
        <time>2019-06-09T08:58:30Z</time>
      </trkpt>
      <trkpt lat="45.59132" lon="3.22159">
        <ele>437.7</ele>
        <time>2019-06-09T09:00:19Z</time>
      </trkpt>
      <trkpt lat="45.59115" lon="3.2212">
        <ele>436.5</ele>
        <time>2019-06-09T09:00:51Z</time>
      </trkpt>
      <trkpt lat="45.59109" lon="3.2206">
        <ele>434.878754</ele>
        <time>2019-06-09T09:01:00Z</time>
      </trkpt>
      <trkpt lat="45.59104" lon="3.22026">
        <ele>436.6</ele>
        <time>2019-06-09T09:01:04Z</time>
      </trkpt>
      <trkpt lat="45.59111" lon="3.21987">
        <ele>436.6</ele>
        <time>2019-06-09T09:01:10Z</time>
      </trkpt>
      <trkpt lat="45.5912" lon="3.21911">
        <ele>437.6</ele>
        <time>2019-06-09T09:01:21Z</time>
      </trkpt>
      <trkpt lat="45.59118" lon="3.21849">
        <ele>434.445496</ele>
        <time>2019-06-09T09:01:29Z</time>
      </trkpt>
      <trkpt lat="45.59113" lon="3.21779">
        <ele>436.1</ele>
        <time>2019-06-09T09:01:39Z</time>
      </trkpt>
      <trkpt lat="45.59105" lon="3.21709">
        <ele>423.8</ele>
        <time>2019-06-09T09:02:29Z</time>
      </trkpt>
      <trkpt lat="45.59054" lon="3.21624">
        <ele>434.3</ele>
        <time>2019-06-09T09:02:44Z</time>
      </trkpt>
      <trkpt lat="45.59052" lon="3.21645">
        <ele>438.9</ele>
        <time>2019-06-09T09:02:47Z</time>
      </trkpt>
      <trkpt lat="45.59054" lon="3.21702">
        <ele>446.6</ele>
        <time>2019-06-09T09:02:55Z</time>
      </trkpt>
      <trkpt lat="45.59059" lon="3.21763">
        <ele>453.8</ele>
        <time>2019-06-09T09:03:04Z</time>
      </trkpt>
      <trkpt lat="45.59062" lon="3.21822">
        <ele>450.2</ele>
        <time>2019-06-09T09:03:12Z</time>
      </trkpt>
      <trkpt lat="45.59021" lon="3.2183">
        <ele>464.8</ele>
        <time>2019-06-09T09:03:20Z</time>
      </trkpt>
      <trkpt lat="45.58978" lon="3.21836">
        <ele>471.5</ele>
        <time>2019-06-09T09:03:29Z</time>
      </trkpt>
      <trkpt lat="45.58964" lon="3.21798">
        <ele>473.4</ele>
        <time>2019-06-09T09:03:35Z</time>
      </trkpt>
      <trkpt lat="45.5895" lon="3.21753">
        <ele>473.8</ele>
        <time>2019-06-09T09:03:42Z</time>
      </trkpt>
      <trkpt lat="45.58928" lon="3.2166">
        <ele>468.081238</ele>
        <time>2019-06-09T09:04:50Z</time>
      </trkpt>
      <trkpt lat="45.58914" lon="3.21641">
        <ele>472.8</ele>
        <time>2019-06-09T09:04:54Z</time>
      </trkpt>
      <trkpt lat="45.58886" lon="3.21611">
        <ele>474.5</ele>
        <time>2019-06-09T09:05:01Z</time>
      </trkpt>
      <trkpt lat="45.58839" lon="3.21572">
        <ele>472.252899</ele>
        <time>2019-06-09T09:05:12Z</time>
      </trkpt>
      <trkpt lat="45.58815" lon="3.21552">
        <ele>477.1</ele>
        <time>2019-06-09T09:05:17Z</time>
      </trkpt>
      <trkpt lat="45.58788" lon="3.21536">
        <ele>478.5</ele>
        <time>2019-06-09T09:05:23Z</time>
      </trkpt>
      <trkpt lat="45.58732" lon="3.21501">
        <ele>481.1</ele>
        <time>2019-06-09T09:05:35Z</time>
      </trkpt>
      <trkpt lat="45.58736" lon="3.2147">
        <ele>474.1</ele>
        <time>2019-06-09T09:05:39Z</time>
      </trkpt>
      <trkpt lat="45.58743" lon="3.21386">
        <ele>455.2</ele>
        <time>2019-06-09T09:05:51Z</time>
      </trkpt>
      <trkpt lat="45.58753" lon="3.21276">
        <ele>438.056122</ele>
        <time>2019-06-09T09:06:07Z</time>
      </trkpt>
      <trkpt lat="45.58758" lon="3.21266">
        <ele>437.9</ele>
        <time>2019-06-09T09:06:08Z</time>
      </trkpt>
      <trkpt lat="45.58779" lon="3.21268">
        <ele>434.9</ele>
        <time>2019-06-09T09:06:12Z</time>
      </trkpt>
      <trkpt lat="45.58814" lon="3.21269">
        <ele>433.4</ele>
        <time>2019-06-09T09:06:19Z</time>
      </trkpt>
      <trkpt lat="45.58815" lon="3.21228">
        <ele>432.5</ele>
        <time>2019-06-09T09:06:25Z</time>
      </trkpt>
      <trkpt lat="45.58816" lon="3.21182">
        <ele>434.7</ele>
        <time>2019-06-09T09:06:32Z</time>
      </trkpt>
      <trkpt lat="45.58751" lon="3.2119">
        <ele>445.1</ele>
        <time>2019-06-09T09:06:45Z</time>
      </trkpt>
      <trkpt lat="45.58689" lon="3.21189">
        <ele>446.8</ele>
        <time>2019-06-09T09:06:57Z</time>
      </trkpt>
      <trkpt lat="45.58559" lon="3.21187">
        <ele>468</ele>
        <time>2019-06-09T09:09:06Z</time>
      </trkpt>
      <trkpt lat="45.58543" lon="3.21196">
        <ele>467.6</ele>
        <time>2019-06-09T09:09:23Z</time>
      </trkpt>
      <trkpt lat="45.58496" lon="3.21226">
        <ele>475.2</ele>
        <time>2019-06-09T09:10:14Z</time>
      </trkpt>
      <trkpt lat="45.58445" lon="3.21255">
        <ele>476.57843</ele>
        <time>2019-06-09T09:11:09Z</time>
      </trkpt>
      <trkpt lat="45.58459" lon="3.21222">
        <ele>483</ele>
        <time>2019-06-09T09:11:35Z</time>
      </trkpt>
      <trkpt lat="45.58472" lon="3.212">
        <ele>483.3</ele>
        <time>2019-06-09T09:11:55Z</time>
      </trkpt>
      <trkpt lat="45.58506" lon="3.21146">
        <ele>481.2</ele>
        <time>2019-06-09T09:12:46Z</time>
      </trkpt>
      <trkpt lat="45.58553" lon="3.21029">
        <ele>468.804749</ele>
        <time>2019-06-09T09:14:20Z</time>
      </trkpt>
      <trkpt lat="45.58575" lon="3.20974">
        <ele>468.5</ele>
        <time>2019-06-09T09:14:29Z</time>
      </trkpt>
      <trkpt lat="45.58602" lon="3.20917">
        <ele>461</ele>
        <time>2019-06-09T09:14:38Z</time>
      </trkpt>
      <trkpt lat="45.58586" lon="3.20906">
        <ele>466.6</ele>
        <time>2019-06-09T09:14:42Z</time>
      </trkpt>
      <trkpt lat="45.58547" lon="3.20882">
        <ele>473.6</ele>
        <time>2019-06-09T09:14:50Z</time>
      </trkpt>
      <trkpt lat="45.58529" lon="3.20879">
        <ele>473</ele>
        <time>2019-06-09T09:15:08Z</time>
      </trkpt>
      <trkpt lat="45.58456" lon="3.20862">
        <ele>487.3</ele>
        <time>2019-06-09T09:15:23Z</time>
      </trkpt>
      <trkpt lat="45.58396" lon="3.20869">
        <ele>494.5</ele>
        <time>2019-06-09T09:16:22Z</time>
      </trkpt>
      <trkpt lat="45.58281" lon="3.2088">
        <ele>510.7</ele>
        <time>2019-06-09T09:18:17Z</time>
      </trkpt>
      <trkpt lat="45.5821" lon="3.20894">
        <ele>524.2</ele>
        <time>2019-06-09T09:19:29Z</time>
      </trkpt>
      <trkpt lat="45.58174" lon="3.2094">
        <ele>529.6</ele>
        <time>2019-06-09T09:20:16Z</time>
      </trkpt>
      <trkpt lat="45.58112" lon="3.21019">
        <ele>546.219971</ele>
        <time>2019-06-09T09:21:40Z</time>
      </trkpt>
      <trkpt lat="45.581" lon="3.21047">
        <ele>551</ele>
        <time>2019-06-09T09:21:44Z</time>
      </trkpt>
      <trkpt lat="45.58084" lon="3.21074">
        <ele>553</ele>
        <time>2019-06-09T09:21:49Z</time>
      </trkpt>
      <trkpt lat="45.58059" lon="3.21132">
        <ele>549.9</ele>
        <time>2019-06-09T09:21:59Z</time>
      </trkpt>
      <trkpt lat="45.58048" lon="3.21155">
        <ele>553.7</ele>
        <time>2019-06-09T09:22:02Z</time>
      </trkpt>
      <trkpt lat="45.58035" lon="3.21157">
        <ele>554.3</ele>
        <time>2019-06-09T09:22:05Z</time>
      </trkpt>
      <trkpt lat="45.58021" lon="3.21161">
        <ele>550</ele>
        <time>2019-06-09T09:22:08Z</time>
      </trkpt>
      <trkpt lat="45.57987" lon="3.21166">
        <ele>551.4</ele>
        <time>2019-06-09T09:22:15Z</time>
      </trkpt>
      <trkpt lat="45.57938" lon="3.2113">
        <ele>559.5</ele>
        <time>2019-06-09T09:23:10Z</time>
      </trkpt>
      <trkpt lat="45.57885" lon="3.21084">
        <ele>555.7</ele>
        <time>2019-06-09T09:24:11Z</time>
      </trkpt>
      <trkpt lat="45.5786" lon="3.21002">
        <ele>565.073486</ele>
        <time>2019-06-09T09:25:13Z</time>
      </trkpt>
      <trkpt lat="45.57888" lon="3.20913">
        <ele>576.624268</ele>
        <time>2019-06-09T09:26:21Z</time>
      </trkpt>
      <trkpt lat="45.57907" lon="3.20791">
        <ele>580.5</ele>
        <time>2019-06-09T09:27:48Z</time>
      </trkpt>
      <trkpt lat="45.57887" lon="3.20602">
        <ele>584.9</ele>
        <time>2019-06-09T09:28:15Z</time>
      </trkpt>
      <trkpt lat="45.5785" lon="3.20465">
        <ele>599.3</ele>
        <time>2019-06-09T09:28:35Z</time>
      </trkpt>
      <trkpt lat="45.5783" lon="3.20403">
        <ele>591.1</ele>
        <time>2019-06-09T09:29:23Z</time>
      </trkpt>
      <trkpt lat="45.57794" lon="3.20292">
        <ele>588.3</ele>
        <time>2019-06-09T09:30:48Z</time>
      </trkpt>
      <trkpt lat="45.57746" lon="3.20216">
        <ele>599.4</ele>
        <time>2019-06-09T09:31:02Z</time>
      </trkpt>
      <trkpt lat="45.577" lon="3.20176">
        <ele>587.7</ele>
        <time>2019-06-09T09:31:56Z</time>
      </trkpt>
      <trkpt lat="45.5767" lon="3.20147">
        <ele>595.2</ele>
        <time>2019-06-09T09:32:03Z</time>
      </trkpt>
      <trkpt lat="45.57646" lon="3.20113">
        <ele>587</ele>
        <time>2019-06-09T09:32:10Z</time>
      </trkpt>
      <trkpt lat="45.57592" lon="3.20046">
        <ele>569.8</ele>
        <time>2019-06-09T09:33:21Z</time>
      </trkpt>
      <trkpt lat="45.57585" lon="3.20037">
        <ele>571.5</ele>
        <time>2019-06-09T09:33:23Z</time>
      </trkpt>
      <trkpt lat="45.5758" lon="3.20019">
        <ele>570.6</ele>
        <time>2019-06-09T09:33:25Z</time>
      </trkpt>
      <trkpt lat="45.57574" lon="3.19972">
        <ele>569.3</ele>
        <time>2019-06-09T09:33:32Z</time>
      </trkpt>
      <trkpt lat="45.57565" lon="3.19963">
        <ele>567.3</ele>
        <time>2019-06-09T09:33:34Z</time>
      </trkpt>
      <trkpt lat="45.57526" lon="3.19937">
        <ele>568.4</ele>
        <time>2019-06-09T09:33:43Z</time>
      </trkpt>
      <trkpt lat="45.57482" lon="3.19913">
        <ele>573.6</ele>
        <time>2019-06-09T09:33:52Z</time>
      </trkpt>
      <trkpt lat="45.57485" lon="3.19795">
        <ele>569.054382</ele>
        <time>2019-06-09T09:34:09Z</time>
      </trkpt>
      <trkpt lat="45.57424" lon="3.19522">
        <ele>566.737061</ele>
        <time>2019-06-09T09:37:28Z</time>
      </trkpt>
      <trkpt lat="45.57399" lon="3.19443">
        <ele>568.3</ele>
        <time>2019-06-09T09:38:29Z</time>
      </trkpt>
      <trkpt lat="45.57383" lon="3.19365">
        <ele>567.73175</ele>
        <time>2019-06-09T09:39:26Z</time>
      </trkpt>
      <trkpt lat="45.57375" lon="3.19313">
        <ele>570.6</ele>
        <time>2019-06-09T09:39:33Z</time>
      </trkpt>
      <trkpt lat="45.57374" lon="3.19259">
        <ele>571.8</ele>
        <time>2019-06-09T09:39:41Z</time>
      </trkpt>
      <trkpt lat="45.57372" lon="3.19153">
        <ele>574.4</ele>
        <time>2019-06-09T09:39:56Z</time>
      </trkpt>
      <trkpt lat="45.57367" lon="3.19098">
        <ele>571.7</ele>
        <time>2019-06-09T09:40:04Z</time>
      </trkpt>
      <trkpt lat="45.57358" lon="3.18951">
        <ele>570.7</ele>
        <time>2019-06-09T09:40:26Z</time>
      </trkpt>
      <trkpt lat="45.57355" lon="3.18846">
        <ele>578.2</ele>
        <time>2019-06-09T09:41:39Z</time>
      </trkpt>
      <trkpt lat="45.57347" lon="3.18833">
        <ele>579</ele>
        <time>2019-06-09T09:41:51Z</time>
      </trkpt>
      <trkpt lat="45.5719" lon="3.18976">
        <ele>594.2</ele>
        <time>2019-06-09T09:44:56Z</time>
      </trkpt>
      <trkpt lat="45.57182" lon="3.18949">
        <ele>601.3</ele>
        <time>2019-06-09T09:45:17Z</time>
      </trkpt>
      <trkpt lat="45.57172" lon="3.1892">
        <ele>596.3</ele>
        <time>2019-06-09T09:45:39Z</time>
      </trkpt>
      <trkpt lat="45.57223" lon="3.18836">
        <ele>607.6</ele>
        <time>2019-06-09T09:46:57Z</time>
      </trkpt>
      <trkpt lat="45.57244" lon="3.18765">
        <ele>602.5</ele>
        <time>2019-06-09T09:47:51Z</time>
      </trkpt>
      <trkpt lat="45.57256" lon="3.18736">
        <ele>607.1</ele>
        <time>2019-06-09T09:48:14Z</time>
      </trkpt>
      <trkpt lat="45.57277" lon="3.18691">
        <ele>598.6</ele>
        <time>2019-06-09T09:48:21Z</time>
      </trkpt>
      <trkpt lat="45.57275" lon="3.18602">
        <ele>608.3</ele>
        <time>2019-06-09T09:48:34Z</time>
      </trkpt>
      <trkpt lat="45.57282" lon="3.18559">
        <ele>608.4</ele>
        <time>2019-06-09T09:49:04Z</time>
      </trkpt>
      <trkpt lat="45.57277" lon="3.1851">
        <ele>599.3</ele>
        <time>2019-06-09T09:49:38Z</time>
      </trkpt>
      <trkpt lat="45.5727" lon="3.18477">
        <ele>609</ele>
        <time>2019-06-09T09:49:43Z</time>
      </trkpt>
      <trkpt lat="45.57261" lon="3.18445">
        <ele>608.2</ele>
        <time>2019-06-09T09:49:48Z</time>
      </trkpt>
      <trkpt lat="45.57243" lon="3.18408">
        <ele>610</ele>
        <time>2019-06-09T09:49:54Z</time>
      </trkpt>
      <trkpt lat="45.57216" lon="3.1837">
        <ele>610</ele>
        <time>2019-06-09T09:50:02Z</time>
      </trkpt>
      <trkpt lat="45.57196" lon="3.18299">
        <ele>599.9</ele>
        <time>2019-06-09T09:50:55Z</time>
      </trkpt>
      <trkpt lat="45.57181" lon="3.18276">
        <ele>609.9</ele>
        <time>2019-06-09T09:51:00Z</time>
      </trkpt>
      <trkpt lat="45.57126" lon="3.18195">
        <ele>602.3</ele>
        <time>2019-06-09T09:51:15Z</time>
      </trkpt>
      <trkpt lat="45.57081" lon="3.18135">
        <ele>606.3</ele>
        <time>2019-06-09T09:51:28Z</time>
      </trkpt>
      <trkpt lat="45.56961" lon="3.18385">
        <ele>607.6</ele>
        <time>2019-06-09T09:52:10Z</time>
      </trkpt>
      <trkpt lat="45.56942" lon="3.18381">
        <ele>609.7</ele>
        <time>2019-06-09T09:52:13Z</time>
      </trkpt>
      <trkpt lat="45.56934" lon="3.1832">
        <ele>606.7</ele>
        <time>2019-06-09T09:52:22Z</time>
      </trkpt>
      <trkpt lat="45.56903" lon="3.1825">
        <ele>605.5</ele>
        <time>2019-06-09T09:52:34Z</time>
      </trkpt>
      <trkpt lat="45.56867" lon="3.1821">
        <ele>605.3</ele>
        <time>2019-06-09T09:52:43Z</time>
      </trkpt>
      <trkpt lat="45.56847" lon="3.18204">
        <ele>611.346252</ele>
        <time>2019-06-09T09:52:47Z</time>
      </trkpt>
      <trkpt lat="45.56753" lon="3.18238">
        <ele>604.7</ele>
        <time>2019-06-09T09:53:06Z</time>
      </trkpt>
      <trkpt lat="45.56713" lon="3.18248">
        <ele>605.9</ele>
        <time>2019-06-09T09:53:47Z</time>
      </trkpt>
      <trkpt lat="45.56705" lon="3.18239">
        <ele>604.9</ele>
        <time>2019-06-09T09:53:49Z</time>
      </trkpt>
      <trkpt lat="45.56693" lon="3.18194">
        <ele>606.5</ele>
        <time>2019-06-09T09:53:55Z</time>
      </trkpt>
      <trkpt lat="45.56671" lon="3.18111">
        <ele>607.7</ele>
        <time>2019-06-09T09:54:08Z</time>
      </trkpt>
      <trkpt lat="45.56663" lon="3.18104">
        <ele>607.3</ele>
        <time>2019-06-09T09:54:17Z</time>
      </trkpt>
      <trkpt lat="45.56565" lon="3.18157">
        <ele>608.5</ele>
        <time>2019-06-09T09:56:01Z</time>
      </trkpt>
      <trkpt lat="45.56506" lon="3.1819">
        <ele>608.8</ele>
        <time>2019-06-09T09:57:04Z</time>
      </trkpt>
      <trkpt lat="45.5639" lon="3.1824">
        <ele>603.5</ele>
        <time>2019-06-09T09:59:04Z</time>
      </trkpt>
      <trkpt lat="45.56369" lon="3.18259">
        <ele>600.6</ele>
        <time>2019-06-09T09:59:29Z</time>
      </trkpt>
      <trkpt lat="45.56376" lon="3.18279">
        <ele>603.4</ele>
        <time>2019-06-09T09:59:45Z</time>
      </trkpt>
      <trkpt lat="45.56383" lon="3.18317">
        <ele>599.7</ele>
        <time>2019-06-09T10:00:12Z</time>
      </trkpt>
      <trkpt lat="45.56393" lon="3.18382">
        <ele>596.3</ele>
        <time>2019-06-09T10:00:21Z</time>
      </trkpt>
      <trkpt lat="45.56406" lon="3.18443">
        <ele>593.7</ele>
        <time>2019-06-09T10:00:30Z</time>
      </trkpt>
      <trkpt lat="45.56419" lon="3.18488">
        <ele>590</ele>
        <time>2019-06-09T10:00:37Z</time>
      </trkpt>
      <trkpt lat="45.5646" lon="3.18624">
        <ele>580</ele>
        <time>2019-06-09T10:00:58Z</time>
      </trkpt>
      <trkpt lat="45.56471" lon="3.18685">
        <ele>576.9</ele>
        <time>2019-06-09T10:01:07Z</time>
      </trkpt>
      <trkpt lat="45.56481" lon="3.18721">
        <ele>573.2</ele>
        <time>2019-06-09T10:01:12Z</time>
      </trkpt>
      <trkpt lat="45.56497" lon="3.18757">
        <ele>569.8</ele>
        <time>2019-06-09T10:01:18Z</time>
      </trkpt>
      <trkpt lat="45.56511" lon="3.18786">
        <ele>568</ele>
        <time>2019-06-09T10:01:23Z</time>
      </trkpt>
      <trkpt lat="45.56519" lon="3.18811">
        <ele>566.7</ele>
        <time>2019-06-09T10:01:27Z</time>
      </trkpt>
      <trkpt lat="45.56521" lon="3.18837">
        <ele>570.4</ele>
        <time>2019-06-09T10:01:45Z</time>
      </trkpt>
      <trkpt lat="45.56526" lon="3.18982">
        <ele>564.3</ele>
        <time>2019-06-09T10:03:26Z</time>
      </trkpt>
      <trkpt lat="45.56522" lon="3.19089">
        <ele>563.5</ele>
        <time>2019-06-09T10:04:41Z</time>
      </trkpt>
      <trkpt lat="45.56526" lon="3.1915">
        <ele>554.3</ele>
        <time>2019-06-09T10:05:23Z</time>
      </trkpt>
      <trkpt lat="45.56539" lon="3.19231">
        <ele>551.6</ele>
        <time>2019-06-09T10:06:21Z</time>
      </trkpt>
      <trkpt lat="45.56563" lon="3.19311">
        <ele>556.4</ele>
        <time>2019-06-09T10:07:22Z</time>
      </trkpt>
      <trkpt lat="45.56575" lon="3.1934">
        <ele>546.7</ele>
        <time>2019-06-09T10:07:45Z</time>
      </trkpt>
      <trkpt lat="45.56589" lon="3.19366">
        <ele>544.7</ele>
        <time>2019-06-09T10:07:50Z</time>
      </trkpt>
      <trkpt lat="45.56606" lon="3.19375">
        <ele>542.1</ele>
        <time>2019-06-09T10:07:53Z</time>
      </trkpt>
      <trkpt lat="45.56609" lon="3.19391">
        <ele>540.130005</ele>
        <time>2019-06-09T10:08:05Z</time>
      </trkpt>
      <trkpt lat="45.56607" lon="3.19413">
        <ele>543.4</ele>
        <time>2019-06-09T10:08:08Z</time>
      </trkpt>
      <trkpt lat="45.56604" lon="3.19424">
        <ele>542</ele>
        <time>2019-06-09T10:08:16Z</time>
      </trkpt>
      <trkpt lat="45.56595" lon="3.19417">
        <ele>544.4</ele>
        <time>2019-06-09T10:08:27Z</time>
      </trkpt>
      <trkpt lat="45.56587" lon="3.19405">
        <ele>547.2</ele>
        <time>2019-06-09T10:08:38Z</time>
      </trkpt>
      <trkpt lat="45.56583" lon="3.19396">
        <ele>548.2</ele>
        <time>2019-06-09T10:08:39Z</time>
      </trkpt>
      <trkpt lat="45.56577" lon="3.1939">
        <ele>554.2</ele>
        <time>2019-06-09T10:08:47Z</time>
      </trkpt>
      <trkpt lat="45.5652" lon="3.19406">
        <ele>559.5</ele>
        <time>2019-06-09T10:09:44Z</time>
      </trkpt>
      <trkpt lat="45.56473" lon="3.19412">
        <ele>567.3</ele>
        <time>2019-06-09T10:10:31Z</time>
      </trkpt>
      <trkpt lat="45.56447" lon="3.19411">
        <ele>570.7</ele>
        <time>2019-06-09T10:10:58Z</time>
      </trkpt>
      <trkpt lat="45.56419" lon="3.19413">
        <ele>571.7</ele>
        <time>2019-06-09T10:11:25Z</time>
      </trkpt>
      <trkpt lat="45.56407" lon="3.19422">
        <ele>572.6</ele>
        <time>2019-06-09T10:11:39Z</time>
      </trkpt>
      <trkpt lat="45.56399" lon="3.19433">
        <ele>576.7</ele>
        <time>2019-06-09T10:11:50Z</time>
      </trkpt>
      <trkpt lat="45.56382" lon="3.19511">
        <ele>578.1</ele>
        <time>2019-06-09T10:12:47Z</time>
      </trkpt>
      <trkpt lat="45.56363" lon="3.19549">
        <ele>581.8</ele>
        <time>2019-06-09T10:13:20Z</time>
      </trkpt>
      <trkpt lat="45.56337" lon="3.19573">
        <ele>580.4</ele>
        <time>2019-06-09T10:13:50Z</time>
      </trkpt>
      <trkpt lat="45.56298" lon="3.19586">
        <ele>585.3</ele>
        <time>2019-06-09T10:14:30Z</time>
      </trkpt>
      <trkpt lat="45.56258" lon="3.19592">
        <ele>586.5</ele>
        <time>2019-06-09T10:15:10Z</time>
      </trkpt>
      <trkpt lat="45.56163" lon="3.19586">
        <ele>588.8</ele>
        <time>2019-06-09T10:16:45Z</time>
      </trkpt>
      <trkpt lat="45.56155" lon="3.19639">
        <ele>588.4</ele>
        <time>2019-06-09T10:16:53Z</time>
      </trkpt>
      <trkpt lat="45.56136" lon="3.19706">
        <ele>585.9</ele>
        <time>2019-06-09T10:17:43Z</time>
      </trkpt>
      <trkpt lat="45.56122" lon="3.19881">
        <ele>587.6</ele>
        <time>2019-06-09T10:19:45Z</time>
      </trkpt>
      <trkpt lat="45.56126" lon="3.19939">
        <ele>583.3</ele>
        <time>2019-06-09T10:19:53Z</time>
      </trkpt>
      <trkpt lat="45.5613" lon="3.2">
        <ele>586</ele>
        <time>2019-06-09T10:20:02Z</time>
      </trkpt>
      <trkpt lat="45.56131" lon="3.20066">
        <ele>585.102478</ele>
        <time>2019-06-09T10:20:48Z</time>
      </trkpt>
      <trkpt lat="45.56131" lon="3.20178">
        <ele>584.2</ele>
        <time>2019-06-09T10:21:03Z</time>
      </trkpt>
      <trkpt lat="45.56135" lon="3.20219">
        <ele>581.2</ele>
        <time>2019-06-09T10:21:33Z</time>
      </trkpt>
      <trkpt lat="45.56148" lon="3.20337">
        <ele>582.7</ele>
        <time>2019-06-09T10:22:56Z</time>
      </trkpt>
      <trkpt lat="45.56164" lon="3.20458">
        <ele>579</ele>
        <time>2019-06-09T10:24:21Z</time>
      </trkpt>
      <trkpt lat="45.56175" lon="3.20556">
        <ele>580</ele>
        <time>2019-06-09T10:25:31Z</time>
      </trkpt>
      <trkpt lat="45.56185" lon="3.20665">
        <ele>579</ele>
        <time>2019-06-09T10:26:47Z</time>
      </trkpt>
      <trkpt lat="45.56191" lon="3.2068">
        <ele>574.5</ele>
        <time>2019-06-09T10:26:59Z</time>
      </trkpt>
      <trkpt lat="45.56205" lon="3.20684">
        <ele>579</ele>
        <time>2019-06-09T10:27:13Z</time>
      </trkpt>
      <trkpt lat="45.56228" lon="3.20683">
        <ele>578.9</ele>
        <time>2019-06-09T10:27:17Z</time>
      </trkpt>
      <trkpt lat="45.56256" lon="3.20682">
        <ele>578.4</ele>
        <time>2019-06-09T10:27:45Z</time>
      </trkpt>
      <trkpt lat="45.56267" lon="3.20685">
        <ele>575.5</ele>
        <time>2019-06-09T10:27:57Z</time>
      </trkpt>
      <trkpt lat="45.56266" lon="3.20629">
        <ele>575.8</ele>
        <time>2019-06-09T10:28:36Z</time>
      </trkpt>
      <trkpt lat="45.56266" lon="3.20586">
        <ele>576.2</ele>
        <time>2019-06-09T10:29:06Z</time>
      </trkpt>
      <trkpt lat="45.56382" lon="3.20549">
        <ele>574.1</ele>
        <time>2019-06-09T10:31:00Z</time>
      </trkpt>
      <trkpt lat="45.56439" lon="3.20527">
        <ele>568.5</ele>
        <time>2019-06-09T10:31:59Z</time>
      </trkpt>
      <trkpt lat="45.56476" lon="3.20509">
        <ele>562.5</ele>
        <time>2019-06-09T10:32:38Z</time>
      </trkpt>
      <trkpt lat="45.56513" lon="3.20489">
        <ele>555</ele>
        <time>2019-06-09T10:33:17Z</time>
      </trkpt>
      <trkpt lat="45.56552" lon="3.20469">
        <ele>545.7</ele>
        <time>2019-06-09T10:33:26Z</time>
      </trkpt>
      <trkpt lat="45.56623" lon="3.20436">
        <ele>532.4</ele>
        <time>2019-06-09T10:34:40Z</time>
      </trkpt>
      <trkpt lat="45.56646" lon="3.20415">
        <ele>526.3</ele>
        <time>2019-06-09T10:34:45Z</time>
      </trkpt>
      <trkpt lat="45.5667" lon="3.20392">
        <ele>523.6</ele>
        <time>2019-06-09T10:34:51Z</time>
      </trkpt>
      <trkpt lat="45.56687" lon="3.20369">
        <ele>519.51123</ele>
        <time>2019-06-09T10:35:14Z</time>
      </trkpt>
      <trkpt lat="45.5674" lon="3.2043">
        <ele>516.4</ele>
        <time>2019-06-09T10:35:27Z</time>
      </trkpt>
      <trkpt lat="45.56769" lon="3.20454">
        <ele>512.5</ele>
        <time>2019-06-09T10:36:00Z</time>
      </trkpt>
      <trkpt lat="45.56798" lon="3.2047">
        <ele>512.3</ele>
        <time>2019-06-09T10:36:31Z</time>
      </trkpt>
      <trkpt lat="45.56826" lon="3.20489">
        <ele>505</ele>
        <time>2019-06-09T10:36:38Z</time>
      </trkpt>
      <trkpt lat="45.56871" lon="3.20505">
        <ele>501.3</ele>
        <time>2019-06-09T10:37:23Z</time>
      </trkpt>
      <trkpt lat="45.56899" lon="3.2052">
        <ele>500.325958</ele>
        <time>2019-06-09T10:37:53Z</time>
      </trkpt>
      <trkpt lat="45.56949" lon="3.20584">
        <ele>493.7</ele>
        <time>2019-06-09T10:39:00Z</time>
      </trkpt>
      <trkpt lat="45.56974" lon="3.20622">
        <ele>491</ele>
        <time>2019-06-09T10:39:36Z</time>
      </trkpt>
      <trkpt lat="45.57006" lon="3.20637">
        <ele>489.1</ele>
        <time>2019-06-09T10:40:10Z</time>
      </trkpt>
      <trkpt lat="45.57103" lon="3.20725">
        <ele>478.6</ele>
        <time>2019-06-09T10:42:04Z</time>
      </trkpt>
      <trkpt lat="45.57135" lon="3.20745">
        <ele>474.8</ele>
        <time>2019-06-09T10:42:39Z</time>
      </trkpt>
      <trkpt lat="45.57161" lon="3.20781">
        <ele>472.4</ele>
        <time>2019-06-09T10:43:15Z</time>
      </trkpt>
      <trkpt lat="45.57205" lon="3.20812">
        <ele>478.3</ele>
        <time>2019-06-09T10:44:04Z</time>
      </trkpt>
      <trkpt lat="45.57207" lon="3.20822">
        <ele>473.3</ele>
        <time>2019-06-09T10:44:05Z</time>
      </trkpt>
      <trkpt lat="45.57209" lon="3.20842">
        <ele>472.5</ele>
        <time>2019-06-09T10:44:08Z</time>
      </trkpt>
      <trkpt lat="45.57189" lon="3.2082">
        <ele>472.2</ele>
        <time>2019-06-09T10:44:13Z</time>
      </trkpt>
      <trkpt lat="45.57177" lon="3.20808">
        <ele>471.7</ele>
        <time>2019-06-09T10:44:16Z</time>
      </trkpt>
      <trkpt lat="45.57175" lon="3.20812">
        <ele>477</ele>
        <time>2019-06-09T10:44:20Z</time>
      </trkpt>
      <trkpt lat="45.57168" lon="3.20836">
        <ele>471.1</ele>
        <time>2019-06-09T10:44:37Z</time>
      </trkpt>
      <trkpt lat="45.57163" lon="3.20873">
        <ele>477</ele>
        <time>2019-06-09T10:45:04Z</time>
      </trkpt>
      <trkpt lat="45.57161" lon="3.20896">
        <ele>472.6</ele>
        <time>2019-06-09T10:45:20Z</time>
      </trkpt>
      <trkpt lat="45.57106" lon="3.20929">
        <ele>478.8</ele>
        <time>2019-06-09T10:46:19Z</time>
      </trkpt>
      <trkpt lat="45.57094" lon="3.20935">
        <ele>480.7</ele>
        <time>2019-06-09T10:46:32Z</time>
      </trkpt>
      <trkpt lat="45.57018" lon="3.20971">
        <ele>495.2</ele>
        <time>2019-06-09T10:47:51Z</time>
      </trkpt>
      <trkpt lat="45.57008" lon="3.20976">
        <ele>493.9</ele>
        <time>2019-06-09T10:47:53Z</time>
      </trkpt>
      <trkpt lat="45.57008" lon="3.20992">
        <ele>494.3</ele>
        <time>2019-06-09T10:47:55Z</time>
      </trkpt>
      <trkpt lat="45.57021" lon="3.21008">
        <ele>498.9</ele>
        <time>2019-06-09T10:47:59Z</time>
      </trkpt>
      <trkpt lat="45.5705" lon="3.21053">
        <ele>492.5</ele>
        <time>2019-06-09T10:48:07Z</time>
      </trkpt>
      <trkpt lat="45.5706" lon="3.2111">
        <ele>496.7</ele>
        <time>2019-06-09T10:48:16Z</time>
      </trkpt>
      <trkpt lat="45.57126" lon="3.21243">
        <ele>497.4</ele>
        <time>2019-06-09T10:48:38Z</time>
      </trkpt>
      <trkpt lat="45.57148" lon="3.21275">
        <ele>495</ele>
        <time>2019-06-09T10:48:45Z</time>
      </trkpt>
      <trkpt lat="45.57175" lon="3.21304">
        <ele>491.1</ele>
        <time>2019-06-09T10:49:18Z</time>
      </trkpt>
      <trkpt lat="45.57203" lon="3.21355">
        <ele>488.2</ele>
        <time>2019-06-09T10:50:03Z</time>
      </trkpt>
      <trkpt lat="45.5724" lon="3.21431">
        <ele>483.8</ele>
        <time>2019-06-09T10:50:16Z</time>
      </trkpt>
      <trkpt lat="45.57259" lon="3.21455">
        <ele>472.1</ele>
        <time>2019-06-09T10:50:21Z</time>
      </trkpt>
      <trkpt lat="45.57287" lon="3.21471">
        <ele>471.9</ele>
        <time>2019-06-09T10:50:27Z</time>
      </trkpt>
      <trkpt lat="45.57315" lon="3.21509">
        <ele>465.8</ele>
        <time>2019-06-09T10:50:35Z</time>
      </trkpt>
      <trkpt lat="45.57327" lon="3.21539">
        <ele>468.1</ele>
        <time>2019-06-09T10:50:39Z</time>
      </trkpt>
      <trkpt lat="45.57368" lon="3.21639">
        <ele>467.8</ele>
        <time>2019-06-09T10:50:56Z</time>
      </trkpt>
      <trkpt lat="45.57386" lon="3.21678">
        <ele>468.4</ele>
        <time>2019-06-09T10:51:02Z</time>
      </trkpt>
      <trkpt lat="45.57405" lon="3.2171">
        <ele>466</ele>
        <time>2019-06-09T10:51:08Z</time>
      </trkpt>
      <trkpt lat="45.57445" lon="3.21779">
        <ele>459.4</ele>
        <time>2019-06-09T10:52:10Z</time>
      </trkpt>
      <trkpt lat="45.57555" lon="3.21876">
        <ele>448</ele>
        <time>2019-06-09T10:52:36Z</time>
      </trkpt>
      <trkpt lat="45.57645" lon="3.21926">
        <ele>438.9</ele>
        <time>2019-06-09T10:52:55Z</time>
      </trkpt>
      <trkpt lat="45.57721" lon="3.21993">
        <ele>434.5</ele>
        <time>2019-06-09T10:53:13Z</time>
      </trkpt>
      <trkpt lat="45.57739" lon="3.22009">
        <ele>430.2</ele>
        <time>2019-06-09T10:53:17Z</time>
      </trkpt>
      <trkpt lat="45.57726" lon="3.22035">
        <ele>434.9</ele>
        <time>2019-06-09T10:53:39Z</time>
      </trkpt>
      <trkpt lat="45.5771" lon="3.22057">
        <ele>435.8</ele>
        <time>2019-06-09T10:53:44Z</time>
      </trkpt>
      <trkpt lat="45.57701" lon="3.22061">
        <ele>437.2</ele>
        <time>2019-06-09T10:53:45Z</time>
      </trkpt>
      <trkpt lat="45.57634" lon="3.22051">
        <ele>444.3</ele>
        <time>2019-06-09T10:53:59Z</time>
      </trkpt>
      <trkpt lat="45.57591" lon="3.22053">
        <ele>442.6</ele>
        <time>2019-06-09T10:54:07Z</time>
      </trkpt>
      <trkpt lat="45.57528" lon="3.22065">
        <ele>454</ele>
        <time>2019-06-09T10:54:20Z</time>
      </trkpt>
      <trkpt lat="45.57464" lon="3.2207">
        <ele>464.4</ele>
        <time>2019-06-09T10:55:23Z</time>
      </trkpt>
      <trkpt lat="45.57434" lon="3.22066">
        <ele>468.7</ele>
        <time>2019-06-09T10:55:30Z</time>
      </trkpt>
      <trkpt lat="45.57411" lon="3.22059">
        <ele>474.4</ele>
        <time>2019-06-09T10:55:34Z</time>
      </trkpt>
      <trkpt lat="45.57392" lon="3.2205">
        <ele>482.3</ele>
        <time>2019-06-09T10:55:55Z</time>
      </trkpt>
      <trkpt lat="45.57358" lon="3.22008">
        <ele>487.8</ele>
        <time>2019-06-09T10:56:39Z</time>
      </trkpt>
      <trkpt lat="45.57323" lon="3.2198">
        <ele>495.1</ele>
        <time>2019-06-09T10:57:19Z</time>
      </trkpt>
      <trkpt lat="45.57296" lon="3.21987">
        <ele>502.6</ele>
        <time>2019-06-09T10:57:46Z</time>
      </trkpt>
      <trkpt lat="45.5727" lon="3.22008">
        <ele>504.168762</ele>
        <time>2019-06-09T10:58:16Z</time>
      </trkpt>
      <trkpt lat="45.57241" lon="3.22073">
        <ele>509.7</ele>
        <time>2019-06-09T10:58:27Z</time>
      </trkpt>
      <trkpt lat="45.57216" lon="3.22138">
        <ele>516</ele>
        <time>2019-06-09T10:59:19Z</time>
      </trkpt>
      <trkpt lat="45.5723" lon="3.2227">
        <ele>529.6</ele>
        <time>2019-06-09T10:59:38Z</time>
      </trkpt>
      <trkpt lat="45.57246" lon="3.224">
        <ele>532.7</ele>
        <time>2019-06-09T11:01:10Z</time>
      </trkpt>
      <trkpt lat="45.57162" lon="3.22525">
        <ele>542</ele>
        <time>2019-06-09T11:01:34Z</time>
      </trkpt>
      <trkpt lat="45.57161" lon="3.2254">
        <ele>537.6</ele>
        <time>2019-06-09T11:01:44Z</time>
      </trkpt>
      <trkpt lat="45.57208" lon="3.2272">
        <ele>538.1</ele>
        <time>2019-06-09T11:03:58Z</time>
      </trkpt>
      <trkpt lat="45.57256" lon="3.22911">
        <ele>523.989502</ele>
        <time>2019-06-09T11:06:19Z</time>
      </trkpt>
      <trkpt lat="45.5732" lon="3.23045">
        <ele>504.8</ele>
        <time>2019-06-09T11:08:13Z</time>
      </trkpt>
      <trkpt lat="45.57389" lon="3.23176">
        <ele>475.2</ele>
        <time>2019-06-09T11:10:07Z</time>
      </trkpt>
      <trkpt lat="45.57418" lon="3.23205">
        <ele>477.1</ele>
        <time>2019-06-09T11:10:42Z</time>
      </trkpt>
      <trkpt lat="45.57443" lon="3.23241">
        <ele>474.6</ele>
        <time>2019-06-09T11:11:17Z</time>
      </trkpt>
      <trkpt lat="45.57465" lon="3.23271">
        <ele>472.5</ele>
        <time>2019-06-09T11:11:23Z</time>
      </trkpt>
      <trkpt lat="45.5748" lon="3.23307">
        <ele>460.5</ele>
        <time>2019-06-09T11:11:52Z</time>
      </trkpt>
      <trkpt lat="45.57532" lon="3.23326">
        <ele>460.2</ele>
        <time>2019-06-09T11:12:03Z</time>
      </trkpt>
      <trkpt lat="45.57568" lon="3.23332">
        <ele>454.1</ele>
        <time>2019-06-09T11:12:10Z</time>
      </trkpt>
      <trkpt lat="45.57596" lon="3.23329">
        <ele>444.9</ele>
        <time>2019-06-09T11:12:38Z</time>
      </trkpt>
      <trkpt lat="45.57582" lon="3.23306">
        <ele>450.3</ele>
        <time>2019-06-09T11:12:59Z</time>
      </trkpt>
      <trkpt lat="45.57567" lon="3.23289">
        <ele>451.6</ele>
        <time>2019-06-09T11:13:18Z</time>
      </trkpt>
      <trkpt lat="45.57556" lon="3.23244">
        <ele>449.3</ele>
        <time>2019-06-09T11:13:51Z</time>
      </trkpt>
      <trkpt lat="45.57532" lon="3.23148">
        <ele>448.1</ele>
        <time>2019-06-09T11:14:05Z</time>
      </trkpt>
      <trkpt lat="45.57514" lon="3.23095">
        <ele>451.3</ele>
        <time>2019-06-09T11:14:14Z</time>
      </trkpt>
      <trkpt lat="45.57509" lon="3.23066">
        <ele>451.4</ele>
        <time>2019-06-09T11:14:18Z</time>
      </trkpt>
      <trkpt lat="45.57515" lon="3.23031">
        <ele>450.2</ele>
        <time>2019-06-09T11:14:23Z</time>
      </trkpt>
      <trkpt lat="45.57533" lon="3.22973">
        <ele>457.3</ele>
        <time>2019-06-09T11:15:07Z</time>
      </trkpt>
      <trkpt lat="45.57549" lon="3.22946">
        <ele>456.4</ele>
        <time>2019-06-09T11:15:12Z</time>
      </trkpt>
      <trkpt lat="45.5756" lon="3.22938">
        <ele>457.3</ele>
        <time>2019-06-09T11:15:14Z</time>
      </trkpt>
      <trkpt lat="45.57591" lon="3.22918">
        <ele>460.6</ele>
        <time>2019-06-09T11:15:21Z</time>
      </trkpt>
      <trkpt lat="45.57622" lon="3.22894">
        <ele>460.2</ele>
        <time>2019-06-09T11:15:56Z</time>
      </trkpt>
      <trkpt lat="45.57646" lon="3.22862">
        <ele>463.9</ele>
        <time>2019-06-09T11:16:03Z</time>
      </trkpt>
      <trkpt lat="45.57679" lon="3.22822">
        <ele>460.163757</ele>
        <time>2019-06-09T11:16:46Z</time>
      </trkpt>
      <trkpt lat="45.57694" lon="3.2279">
        <ele>458.6</ele>
        <time>2019-06-09T11:16:52Z</time>
      </trkpt>
      <trkpt lat="45.57707" lon="3.22754">
        <ele>458.1</ele>
        <time>2019-06-09T11:16:57Z</time>
      </trkpt>
      <trkpt lat="45.57732" lon="3.22683">
        <ele>455.4</ele>
        <time>2019-06-09T11:17:10Z</time>
      </trkpt>
      <trkpt lat="45.57756" lon="3.22632">
        <ele>456.5</ele>
        <time>2019-06-09T11:17:19Z</time>
      </trkpt>
      <trkpt lat="45.57776" lon="3.22581">
        <ele>447.9</ele>
        <time>2019-06-09T11:17:27Z</time>
      </trkpt>
      <trkpt lat="45.5779" lon="3.22494">
        <ele>443.7</ele>
        <time>2019-06-09T11:18:29Z</time>
      </trkpt>
      <trkpt lat="45.57869" lon="3.22466">
        <ele>436.4</ele>
        <time>2019-06-09T11:18:45Z</time>
      </trkpt>
      <trkpt lat="45.57879" lon="3.22468">
        <ele>435.6</ele>
        <time>2019-06-09T11:18:55Z</time>
      </trkpt>
      <trkpt lat="45.57887" lon="3.22472">
        <ele>434.5</ele>
        <time>2019-06-09T11:19:03Z</time>
      </trkpt>
      <trkpt lat="45.57905" lon="3.22506">
        <ele>435.5</ele>
        <time>2019-06-09T11:19:33Z</time>
      </trkpt>
      <trkpt lat="45.57916" lon="3.22539">
        <ele>434.9</ele>
        <time>2019-06-09T11:19:59Z</time>
      </trkpt>
      <trkpt lat="45.57935" lon="3.2257">
        <ele>432.7</ele>
        <time>2019-06-09T11:20:27Z</time>
      </trkpt>
      <trkpt lat="45.57997" lon="3.22663">
        <ele>422.9</ele>
        <time>2019-06-09T11:21:57Z</time>
      </trkpt>
      <trkpt lat="45.5807" lon="3.22787">
        <ele>409.9</ele>
        <time>2019-06-09T11:23:50Z</time>
      </trkpt>
      <trkpt lat="45.58101" lon="3.22798">
        <ele>409</ele>
        <time>2019-06-09T11:24:21Z</time>
      </trkpt>
      <trkpt lat="45.58102" lon="3.22797">
        <ele>405.6</ele>
        <time>2019-06-09T11:24:22Z</time>
      </trkpt>
      <trkpt lat="45.58112" lon="3.22775">
        <ele>407.2</ele>
        <time>2019-06-09T11:24:25Z</time>
      </trkpt>
      <trkpt lat="45.5813" lon="3.22756">
        <ele>403.648743</ele>
        <time>2019-06-09T11:24:30Z</time>
      </trkpt>
      <trkpt lat="45.58146" lon="3.22747">
        <ele>410.7</ele>
        <time>2019-06-09T11:24:33Z</time>
      </trkpt>
      <trkpt lat="45.58168" lon="3.22748">
        <ele>412.3</ele>
        <time>2019-06-09T11:24:38Z</time>
      </trkpt>
      <trkpt lat="45.58188" lon="3.22766">
        <ele>413.9</ele>
        <time>2019-06-09T11:24:42Z</time>
      </trkpt>
      <trkpt lat="45.58204" lon="3.22786">
        <ele>413.393127</ele>
        <time>2019-06-09T11:24:47Z</time>
      </trkpt>
      <trkpt lat="45.58212" lon="3.22796">
        <ele>417</ele>
        <time>2019-06-09T11:24:49Z</time>
      </trkpt>
      <trkpt lat="45.5822" lon="3.22812">
        <ele>417.5</ele>
        <time>2019-06-09T11:24:51Z</time>
      </trkpt>
      <trkpt lat="45.58235" lon="3.22849">
        <ele>416.9</ele>
        <time>2019-06-09T11:24:57Z</time>
      </trkpt>
      <trkpt lat="45.58251" lon="3.22788">
        <ele>424.3</ele>
        <time>2019-06-09T11:25:06Z</time>
      </trkpt>
      <trkpt lat="45.58283" lon="3.22832">
        <ele>425.6</ele>
        <time>2019-06-09T11:25:15Z</time>
      </trkpt>
      <trkpt lat="45.58309" lon="3.22865">
        <ele>426.9</ele>
        <time>2019-06-09T11:25:22Z</time>
      </trkpt>
      <trkpt lat="45.58335" lon="3.22899">
        <ele>432</ele>
        <time>2019-06-09T11:25:29Z</time>
      </trkpt>
      <trkpt lat="45.58361" lon="3.2293">
        <ele>433.2</ele>
        <time>2019-06-09T11:26:03Z</time>
      </trkpt>
      <trkpt lat="45.58387" lon="3.2296">
        <ele>435.4</ele>
        <time>2019-06-09T11:26:36Z</time>
      </trkpt>
      <trkpt lat="45.58394" lon="3.22975">
        <ele>434.4</ele>
        <time>2019-06-09T11:26:48Z</time>
      </trkpt>
      <trkpt lat="45.58429" lon="3.23057">
        <ele>438.7</ele>
        <time>2019-06-09T11:27:56Z</time>
      </trkpt>
      <trkpt lat="45.58428" lon="3.2311">
        <ele>440.4</ele>
        <time>2019-06-09T11:28:33Z</time>
      </trkpt>
      <trkpt lat="45.58434" lon="3.23168">
        <ele>444.6</ele>
        <time>2019-06-09T11:29:13Z</time>
      </trkpt>
      <trkpt lat="45.58438" lon="3.23219">
        <ele>446.3</ele>
        <time>2019-06-09T11:29:49Z</time>
      </trkpt>
      <trkpt lat="45.58447" lon="3.23255">
        <ele>448.5</ele>
        <time>2019-06-09T11:30:15Z</time>
      </trkpt>
      <trkpt lat="45.58465" lon="3.23314">
        <ele>453.1</ele>
        <time>2019-06-09T11:31:00Z</time>
      </trkpt>
      <trkpt lat="45.58472" lon="3.23361">
        <ele>455.2</ele>
        <time>2019-06-09T11:31:07Z</time>
      </trkpt>
      <trkpt lat="45.58477" lon="3.23414">
        <ele>458.7</ele>
        <time>2019-06-09T11:31:15Z</time>
      </trkpt>
      <trkpt lat="45.58481" lon="3.23467">
        <ele>462.8</ele>
        <time>2019-06-09T11:31:22Z</time>
      </trkpt>
      <trkpt lat="45.58486" lon="3.23514">
        <ele>465.5</ele>
        <time>2019-06-09T11:31:29Z</time>
      </trkpt>
      <trkpt lat="45.58494" lon="3.23538">
        <ele>466.7</ele>
        <time>2019-06-09T11:31:47Z</time>
      </trkpt>
      <trkpt lat="45.58496" lon="3.23577">
        <ele>468.2</ele>
        <time>2019-06-09T11:32:14Z</time>
      </trkpt>
    </trkseg>
  </trk>
</gpx>